Roberto Corona

Recruteur - Club America
3 Déc 2028
Dimanche
Processus

Personnalité

Adaptabilité (1) Ambition (1) Controverse (5) Loyauté (15) Pression (5) Professionnalisme (4) Sportivité (6) Tempérament (7)

Profil

Style d'entraînement Démocratique
Diplôme National B
Détermination 9
Gestion des joueurs 12
Motivation 6
Discipline 10
Satisfaction professionnelle
100%
Fatigue
0%
Rôle Recruteur
Salaire 44.8K p/s
Contrat 14.03.2030

Performance

Comportement Bon
Efficacité de l'entraînement
52%
Développement des joueurs
40%
Prévention des blessures
40%
Mise en place tactique
35%

Événements récents

A évalué un joueur maintenant
A participé à une réunion de recrutement maintenant
A évalué un joueur maintenant
A évalué un joueur maintenant
A évalué un joueur 7j
A évalué un joueur 7j
A évalué un joueur 7j
A évalué un joueur 7j

Suivi en cours

151
Joueur Club Statut Capacité Confiance Observé Dernière observation Dernier vote
Dean Huijsen Las Palmas Actif 147 / 151 40% 6 02.12.2028 -
Yussif Saidu Zaragoza Actif 142 / 149 40% 2 02.12.2028 -
Santiago Sosa Yung Defensa y Justicia Actif 124 / 122 40% 2 01.12.2028 -
Breno Bidon Corinthians Actif 115 / 125 40% 1 01.12.2028 -
Juan José Arias Real Salt Lake Actif 124 / 116 40% 4 29.11.2028 -
Jano Gordon Vélez Actif 146 / 132 40% 3 29.11.2028 -
Jorge Salinas Racing Santander Actif 148 / 128 40% 5 28.11.2028 -
Duarte Cunha Porto Actif 111 / 130 40% 1 28.11.2028 -
Jonathan De Irastorza Independiente Actif 137 / 126 40% 4 27.11.2028 -
Tomás Ferreyra Defensores Unidos Actif 123 / 127 40% 1 27.11.2028 -
Tobías Ramírez River Plate Actif 143 / 129 40% 2 26.11.2028 -
Ibrahim Fullah Charlton Athletic Actif 138 / 118 40% 1 25.11.2028 -
Davinchi Getafe Actif 120 / 133 40% 1 25.11.2028 -
Mateo Seoane Gimnasia La Plata Actif 129 / 133 40% 4 24.11.2028 -
Lucca São Paulo Actif 131 / 128 40% 3 23.11.2028 -
Harry Gray Harrogate Town Actif 137 / 150 40% 1 23.11.2028 -
Lorenzo Amatucci Deportivo La Coruña Actif 143 / 144 40% 1 21.11.2028 -
Jorge Cabello Levante Actif 149 / 136 40% 1 21.11.2028 -
Samuel Gidi FC Cincinnati Actif 119 / 125 40% 2 20.11.2028 -
Yuto Ozeki Kawasaki Frontale Actif 121 / 119 40% 6 17.11.2028 -
Kauã Moraes Flamengo Actif 129 / 122 40% 2 16.11.2028 -
Hugo Sotelo Celta Actif 145 / 158 40% 2 16.11.2028 -
Buba Sangaré Elche Actif 122 / 147 40% 3 15.11.2028 -
Mustafa Hekimoğlu Antalyaspor Actif 146 / 146 40% 3 15.11.2028 -
André Miranda Porto Actif 106 / 130 40% 1 15.11.2028 -
Robinho Junior Flamengo Actif 103 / 122 40% 1 14.11.2028 -
Gabriel Mec Feirense Actif 120 / 148 40% 1 14.11.2028 -
Trey Nyoni Rotherham United Actif 138 / 154 40% 4 12.11.2028 -
Jacob Peter Hödl Sturm Graz Actif 121 / 117 40% 1 12.11.2028 -
Mauricio Amaro Atlanta United FC Actif 123 / 142 40% 1 10.11.2028 -
Elián Giménez Sarmiento Actif 118 / 117 40% 2 09.11.2028 -
Adrian Lahdo Empoli Actif 119 / 131 40% 1 07.11.2028 -
Matías Arias Vélez Actif 106 / 135 40% 1 07.11.2028 -
Josen Escobar Patriotas Actif 109 / 114 40% 1 07.11.2028 -
Agustín Giay Palmeiras Actif 138 / 137 40% 1 07.11.2028 -
Sam Chambers Northampton Town Actif 111 / 118 40% 1 03.11.2028 -
Ignacio Perruzzi San Lorenzo Actif 136 / 127 40% 1 01.11.2028 -
Olle Samuelsson BK Hacken Actif 105 / 120 40% 1 01.11.2028 -
Pau Navarro Villarreal Actif 159 / 164 40% 2 30.10.2028 -
Tahiel Peralta Racing Club Actif 122 / 110 40% 1 29.10.2028 -
Fletcher Boyd Accrington Stanley Actif 116 / 121 40% 1 24.10.2028 -
Álex Valle Boca Juniors Actif 139 / 153 40% 4 23.10.2028 -
Álvaro Montoro Botafogo Actif 124 / 139 40% 1 23.10.2028 -
Valentino Huertas Morón Actif 97 / 116 40% 2 20.10.2028 -
Julián Nuñez Belgrano Actif 100 / 109 40% 1 20.10.2028 -
Dylan Scicluna Western Sydney Wanderers Actif 139 / 109 40% 1 18.10.2028 -
Yusi Alavés Actif 146 / 153 40% 1 18.10.2028 -
Santiago Esquivel Banfield Actif 117 / 124 40% 1 17.10.2028 -
Agustín Medina Lanús Actif 109 / 112 40% 1 16.10.2028 -
Jake Richards Barrow AFC Actif 118 / 126 40% 1 16.10.2028 -
Juan Manuel Villalba Tigre Actif 137 / 114 40% 1 15.10.2028 -
Lukas Kelly-Heald Wellington Phoenix Actif 104 / 130 40% 1 14.10.2028 -
Aleix Garrido Eibar Actif 150 / 142 40% 2 12.10.2028 -
Jay Robinson Everton Actif 121 / 155 40% 1 12.10.2028 -
Joaquín Mosqueira Talleres Actif 128 / 140 40% 1 11.10.2028 -
Markus Karlsson Hammarby Actif 117 / 116 40% 1 11.10.2028 -
Hugo Camberos Dorados Actif 140 / 146 40% 1 08.10.2028 -
Tobías Andrada River Plate Actif 132 / 132 40% 1 07.10.2028 -
Mihajlo Cvetković Club Brugge Actif 125 / 136 40% 1 07.10.2028 -
Matias Siltanen Malmo FF Actif 131 / 115 40% 1 03.10.2028 -
Felipe Obradovich Ferro Carril Oeste Actif 99 / 131 40% 1 02.10.2028 -
Joshua Rawlins Melbourne Victory Actif 140 / 113 40% 1 25.09.2028 -
Hamzat Ojediran Colorado Rapids Actif 129 / 121 40% 1 23.09.2028 -
Jozhua Vertrouwd Rayo Vallecano Actif 124 / 142 40% 1 18.09.2028 -
Maximiliano González Lanús Actif 123 / 111 40% 1 15.09.2028 -
Matteo Prati Cagliari Actif 142 / 150 40% 1 15.09.2028 -
Braian Aranda Agropecuario Argentino Actif 128 / 100 40% 1 11.09.2028 -
Camilo Martinez Cortulua Actif 140 / 120 40% 1 11.09.2028 -
Santiago Murillo Atletico Nacional Actif 127 / 122 40% 1 06.09.2028 -
Bojan Kovačević Cádiz Actif 150 / 144 40% 1 06.09.2028 -
Alan Morinigo Olimpia Actif 100 / 135 40% 1 25.08.2028 -
Nahuel Arias San Lorenzo Actif 136 / 131 40% 1 25.08.2028 -
Lucas Palavecino Banfield Actif 105 / 121 40% 1 22.08.2028 -
Carlos Gruezo Santos Laguna Perdu 117 / 127 55% 1 03.07.2028 -
Rubén Duarte Pumas UNAM Actif 130 / 124 55% 1 01.06.2028 -
Andrey Santos Bolton Wanderers Actif 141 / 137 40% 1 01.06.2028 -
Fábio Carvalho Brentford Actif 166 / 140 40% 1 31.05.2028 -
Christantus Uche Getafe Actif 161 / 148 40% 1 31.05.2028 -
Nazareno Roselli Defensa y Justicia Actif 118 / 113 40% 1 25.05.2028 -
Hervin Goyes Deportivo Pasto Actif 126 / 98 40% 1 25.05.2028 -
Josh Nichols Oldham Athletic Actif 105 / 131 40% 2 24.05.2028 -
Marc Bernal Sevilla Actif 162 / 152 40% 6 23.05.2028 -
Thijs Kraaijeveld USM Alger Actif 119 / 123 40% 1 22.05.2028 -
Riquelme Thompson-Jones Accrington Stanley Actif 110 / 102 40% 1 19.05.2028 -
Augusto Bando Ascoli Actif 123 / 117 40% 1 18.05.2028 -
Andrija Bulatović Chamois Niortais Actif 137 / 119 40% 2 16.05.2028 -
Olivier Leroux Mouscron Actif 89 / 107 40% 1 16.05.2028 -
Tyler Fletcher Rotherham United Actif 114 / 102 40% 2 14.05.2028 -
Martim Cunha Porto Actif 115 / 114 40% 1 14.05.2028 -
Ayden Heaven Portsmouth Actif 159 / 166 40% 2 06.05.2028 -
Kiani Inge Groningen Actif 110 / 107 40% 1 01.05.2028 -
Mateo Caballero Defensor Sporting Actif 107 / 95 40% 1 29.04.2028 -
Daniel Banjaqui Benfica Actif 116 / 128 40% 2 23.04.2028 -
Sebastian Rodriguez Houston Dynamo Actif 113 / 122 40% 1 21.04.2028 -
Lamine Bèye Portimonense Actif 98 / 127 40% 1 20.04.2028 -
Honest Ahanor Atalanta Actif 120 / 147 40% 1 12.04.2028 -
Christos Mouzakitis Hull City Actif 140 / 138 40% 2 11.04.2028 -
Romuald Sawadogo Hapoel Raanana Actif 103 / 92 40% 1 06.04.2028 -
Ramiro Sordo Santos Laguna Actif 122 / 135 55% 1 31.01.2028 -
Yassir Zabiri Stade Rennais Actif 151 / 134 40% 1 31.12.2027 -
Nathan Trott Cardiff City Actif 137 / 141 40% 1 07.07.2027 -
Will Dennis Milton Keynes Dons Actif 118 / 93 40% 1 07.07.2027 -
Tyreece Campbell Charlton Athletic Actif 126 / 104 40% 2 30.05.2027 -
Federico Pereira Toulouse FC Actif 123 / 155 40% 2 29.05.2027 -
Israel Reyes Toulouse FC Actif 127 / 122 40% 1 29.05.2027 -
Josh Coburn Millwall Actif 133 / 118 40% 2 25.05.2027 -
Ilyas Ansah Hull City Actif 149 / 132 40% 1 25.05.2027 -
Sorriso Famalicao Actif 122 / 129 40% 3 24.05.2027 -
Festy Ebosele Basaksehir Actif 134 / 121 40% 1 23.05.2027 -
Caleb Yirenkyi Coventry City Actif 121 / 148 40% 1 23.05.2027 -
Samson Baidoo RC Lens Actif 140 / 129 40% 1 17.05.2027 -
Job Ochieng Real Sociedad Actif 116 / 94 40% 2 10.05.2027 -
Patrick Agyemang Derby County Actif 142 / 121 40% 1 09.05.2027 -
Yousef Salech Cardiff City Actif 119 / 117 40% 3 07.05.2027 -
Sam Bell Bristol City Actif 125 / 115 40% 1 07.05.2027 -
Tyrese Campbell Sheffield United Actif 120 / 118 40% 3 06.05.2027 -
Sidny Lopes Cabral Trabzonspor Actif 137 / 127 40% 2 03.05.2027 -
Hans Nicolussi Caviglia Parma Actif 139 / 141 40% 1 03.05.2027 -
Ngal'Ayel Mukau LOSC Lille Actif 131 / 157 40% 3 02.05.2027 -
Oliver Skipp Leicester City Actif 115 / 149 40% 2 02.05.2027 -
Sam Greenwood Bristol City Actif 120 / 119 40% 1 02.05.2027 -
Oh Hyeon-Gyu Besiktas Actif 115 / 142 40% 1 28.04.2027 -
Ivo Mammini Beitar Jerusalem Actif 135 / 102 40% 1 27.04.2027 -
Tommaso Pobega Bologna Actif 147 / 123 40% 1 25.04.2027 -
Gabriel Sara Galatasaray Actif 128 / 151 40% 2 24.04.2027 -
Billy Gilmour Napoli Actif 161 / 155 40% 2 24.04.2027 -
Joe Gelhardt Hull City Actif 149 / 131 40% 2 23.04.2027 -
Tiago Djaló Besiktas Actif 139 / 114 40% 2 20.04.2027 -
Bright Arrey-Mbi Braga Actif 145 / 132 40% 3 13.04.2027 -
Mitchel Bakker Modena Actif 135 / 119 40% 1 13.04.2027 -
Quentin Merlin Stade Rennais Actif 148 / 139 40% 1 09.04.2027 -
Cristian Cásseres Toulouse FC Actif 149 / 147 40% 1 09.04.2027 -
Nicolò Fagioli Fiorentina Actif 125 / 152 40% 1 07.04.2027 -
Rafael Navarro Famalicao Actif 116 / 107 40% 2 01.04.2027 -
Welington Southampton Actif 138 / 139 40% 1 01.04.2027 -
Malik Mothersille Stockport County Actif 124 / 101 40% 1 30.03.2027 -
Aune Heggebø West Bromwich Albion Actif 120 / 130 40% 2 25.03.2027 -
Bertuğ Yıldırım Basaksehir Actif 125 / 141 40% 2 24.03.2027 -
Víctor Gómez Braga Actif 135 / 140 40% 1 24.03.2027 -
Shea Charles Southampton Actif 123 / 135 40% 1 17.03.2027 -
Lamine Camara Monaco Actif 142 / 128 40% 1 17.03.2027 -
Milan van Ewijk Coventry City Actif 130 / 129 40% 1 12.03.2027 -
Nicolò Tresoldi Club Brugge Actif 128 / 122 40% 1 12.03.2027 -
Lorent Tolaj Plymouth Argyle Actif 120 / 104 40% 1 08.03.2027 -
Mattéo Guendouzi Fenerbahce Actif 169 / 168 40% 1 02.03.2027 -
Iván Fresneda Sporting CP Actif 136 / 160 40% 1 01.03.2027 -
Jackson Muleka Konyaspor Actif 138 / 135 40% 1 28.02.2027 -
Duk Atlas Actif 128 / 106 40% 1 20.02.2027 -
Alireza Yazdani Padideh Actif 128 / 117 40% 1 25.01.2027 -
William Carvalho Pachuca Actif 144 / 130 55% 1 11.01.2027 -
Steven Bergwijn Al-Ittihad Actif 153 / 136 40% 1 01.08.2026 -